LVS073 GEZ-SAZM
Flight info
| Callsign | LVS073 |
|---|---|
| Flight time | N/A |
| Altitude | 9000 |
| Route | DCT EZE GBE W29 VOTRA |
| Aircraft | BR23/L-SFG/C |
Departure
| Time | N/A |
|---|---|
| Airport | GEZ |
Arrival
| Time | 2026-04-24 20:34 |
|---|---|
| Airport | Ástor Piazzola International Airport (SAZM) |
| Time | Latitude | Longitude | Altitude | Speed | Heading |
|---|---|---|---|---|---|
| 2026-04-24 18:54 | -34.91020 | -58.88129 | 9055 ft | 118 kts | 161° |
| 2026-04-24 18:55 | -34.92534 | -58.87387 | 9051 ft | 117 kts | 161° |
| 2026-04-24 18:55 | -34.93288 | -58.87018 | 9052 ft | 117 kts | 161° |
| 2026-04-24 18:55 | -34.94042 | -58.86648 | 9053 ft | 117 kts | 161° |
| 2026-04-24 18:56 | -34.94800 | -58.86275 | 9054 ft | 117 kts | 161° |
| 2026-04-24 18:56 | -34.95560 | -58.85903 | 9051 ft | 117 kts | 161° |
| 2026-04-24 18:56 | -34.96312 | -58.85532 | 9054 ft | 116 kts | 161° |
| 2026-04-24 18:56 | -34.97067 | -58.85163 | 9055 ft | 117 kts | 161° |
| 2026-04-24 18:57 | -34.97810 | -58.84797 | 9053 ft | 117 kts | 161° |
| 2026-04-24 18:57 | -34.98564 | -58.84428 | 9053 ft | 117 kts | 161° |
| 2026-04-24 18:57 | -34.99324 | -58.84055 | 9053 ft | 117 kts | 161° |
| 2026-04-24 18:57 | -35.00083 | -58.83682 | 9051 ft | 118 kts | 161° |
| 2026-04-24 18:58 | -35.00845 | -58.83309 | 9053 ft | 118 kts | 161° |
| 2026-04-24 18:58 | -35.01606 | -58.82934 | 9048 ft | 118 kts | 161° |
| 2026-04-24 18:58 | -35.02367 | -58.82559 | 9050 ft | 117 kts | 161° |
| 2026-04-24 18:58 | -35.03122 | -58.82188 | 9050 ft | 117 kts | 161° |
| 2026-04-24 18:59 | -35.03882 | -58.81815 | 9048 ft | 118 kts | 161° |
| 2026-04-24 18:59 | -35.04638 | -58.81443 | 9048 ft | 117 kts | 162° |
| 2026-04-24 18:59 | -35.05397 | -58.81070 | 9048 ft | 118 kts | 161° |
| 2026-04-24 18:59 | -35.06152 | -58.80697 | 9049 ft | 117 kts | 161° |
| 2026-04-24 19:00 | -35.06908 | -58.80326 | 9048 ft | 117 kts | 161° |
| 2026-04-24 19:00 | -35.07663 | -58.79956 | 9047 ft | 117 kts | 161° |
| 2026-04-24 19:00 | -35.08420 | -58.79583 | 9047 ft | 118 kts | 161° |
| 2026-04-24 19:00 | -35.09182 | -58.79206 | 9043 ft | 118 kts | 161° |
| 2026-04-24 19:01 | -35.09941 | -58.78833 | 9047 ft | 118 kts | 162° |
| 2026-04-24 19:01 | -35.10702 | -58.78458 | 9046 ft | 118 kts | 162° |
| 2026-04-24 19:01 | -35.11467 | -58.78083 | 9044 ft | 119 kts | 162° |
| 2026-04-24 19:01 | -35.12231 | -58.77705 | 9043 ft | 119 kts | 161° |
| 2026-04-24 19:02 | -35.12990 | -58.77331 | 9047 ft | 119 kts | 161° |
| 2026-04-24 19:02 | -35.13759 | -58.76952 | 9041 ft | 119 kts | 162° |
| 2026-04-24 19:02 | -35.14523 | -58.76575 | 9039 ft | 118 kts | 161° |
| 2026-04-24 19:02 | -35.15285 | -58.76199 | 9045 ft | 119 kts | 162° |
| 2026-04-24 19:03 | -35.16051 | -58.75820 | 9041 ft | 118 kts | 162° |
| 2026-04-24 19:03 | -35.16814 | -58.75446 | 9040 ft | 118 kts | 162° |
| 2026-04-24 19:03 | -35.17576 | -58.75069 | 9046 ft | 118 kts | 162° |
| 2026-04-24 19:03 | -35.18338 | -58.74694 | 9039 ft | 118 kts | 162° |
| 2026-04-24 19:04 | -35.19101 | -58.74317 | 9040 ft | 118 kts | 161° |
| 2026-04-24 19:04 | -35.19864 | -58.73939 | 9042 ft | 118 kts | 162° |
| 2026-04-24 19:04 | -35.20629 | -58.73562 | 9038 ft | 118 kts | 162° |
| 2026-04-24 19:04 | -35.21390 | -58.73184 | 9036 ft | 118 kts | 161° |
| 2026-04-24 19:05 | -35.22153 | -58.72810 | 9038 ft | 119 kts | 162° |
| 2026-04-24 19:05 | -35.22926 | -58.72427 | 9038 ft | 119 kts | 162° |
| 2026-04-24 19:05 | -35.23696 | -58.72046 | 9044 ft | 119 kts | 162° |
| 2026-04-24 19:05 | -35.24456 | -58.71668 | 9042 ft | 119 kts | 162° |
| 2026-04-24 19:06 | -35.25223 | -58.71291 | 9045 ft | 119 kts | 162° |
| 2026-04-24 19:06 | -35.25990 | -58.70912 | 9046 ft | 119 kts | 162° |
| 2026-04-24 19:06 | -35.26759 | -58.70533 | 9046 ft | 119 kts | 162° |
| 2026-04-24 19:06 | -35.27527 | -58.70152 | 9043 ft | 120 kts | 162° |
| 2026-04-24 19:07 | -35.28297 | -58.69769 | 9043 ft | 119 kts | 161° |
| 2026-04-24 19:07 | -35.29068 | -58.69388 | 9047 ft | 119 kts | 162° |
| 2026-04-24 19:07 | -35.29836 | -58.69008 | 9046 ft | 119 kts | 162° |
| 2026-04-24 19:07 | -35.30608 | -58.68627 | 9043 ft | 120 kts | 162° |
| 2026-04-24 19:08 | -35.31383 | -58.68243 | 9045 ft | 120 kts | 162° |
| 2026-04-24 19:08 | -35.32155 | -58.67860 | 9043 ft | 119 kts | 162° |
| 2026-04-24 19:08 | -35.32922 | -58.67481 | 9042 ft | 119 kts | 162° |
| 2026-04-24 19:08 | -35.33680 | -58.67104 | 9044 ft | 119 kts | 162° |
| 2026-04-24 19:09 | -35.34451 | -58.66722 | 9043 ft | 119 kts | 162° |
| 2026-04-24 19:09 | -35.35221 | -58.66341 | 9044 ft | 119 kts | 162° |
| 2026-04-24 19:09 | -35.35993 | -58.65956 | 9046 ft | 119 kts | 162° |
| 2026-04-24 19:09 | -35.36762 | -58.65576 | 9044 ft | 119 kts | 162° |
| 2026-04-24 19:10 | -35.37532 | -58.65194 | 9041 ft | 119 kts | 162° |
| 2026-04-24 19:10 | -35.38300 | -58.64814 | 9042 ft | 119 kts | 162° |
| 2026-04-24 19:10 | -35.39067 | -58.64432 | 9042 ft | 119 kts | 162° |
| 2026-04-24 19:10 | -35.39835 | -58.64051 | 9042 ft | 119 kts | 162° |
| 2026-04-24 19:11 | -35.40605 | -58.63669 | 9041 ft | 119 kts | 161° |
| 2026-04-24 19:11 | -35.41374 | -58.63288 | 9041 ft | 119 kts | 162° |
| 2026-04-24 19:11 | -35.42130 | -58.62911 | 9039 ft | 119 kts | 162° |
| 2026-04-24 19:11 | -35.42898 | -58.62530 | 9040 ft | 119 kts | 162° |
| 2026-04-24 19:12 | -35.43668 | -58.62147 | 9041 ft | 120 kts | 162° |
| 2026-04-24 19:12 | -35.44438 | -58.61764 | 9040 ft | 119 kts | 162° |
| 2026-04-24 19:12 | -35.45211 | -58.61381 | 9044 ft | 120 kts | 162° |
| 2026-04-24 19:12 | -35.45983 | -58.60997 | 9045 ft | 119 kts | 162° |
| 2026-04-24 19:13 | -35.46493 | -58.60744 | 9042 ft | 119 kts | 162° |
| 2026-04-24 19:13 | -35.47512 | -58.60237 | 9043 ft | 119 kts | 162° |
| 2026-04-24 19:13 | -35.48283 | -58.59852 | 9042 ft | 120 kts | 162° |
| 2026-04-24 19:13 | -35.49058 | -58.59466 | 9045 ft | 120 kts | 162° |
| 2026-04-24 19:14 | -35.49830 | -58.59082 | 9046 ft | 120 kts | 162° |
| 2026-04-24 19:14 | -35.50604 | -58.58697 | 9046 ft | 120 kts | 162° |
| 2026-04-24 19:14 | -35.51378 | -58.58312 | 9051 ft | 120 kts | 162° |
| 2026-04-24 19:14 | -35.52153 | -58.57926 | 9048 ft | 120 kts | 162° |
| 2026-04-24 19:15 | -35.52928 | -58.57538 | 9051 ft | 120 kts | 162° |
| 2026-04-24 19:15 | -35.53705 | -58.57153 | 9049 ft | 120 kts | 162° |
| 2026-04-24 19:15 | -35.54488 | -58.56763 | 9050 ft | 122 kts | 162° |
| 2026-04-24 19:15 | -35.55267 | -58.56373 | 9048 ft | 120 kts | 162° |
| 2026-04-24 19:16 | -35.56818 | -58.55601 | 9050 ft | 121 kts | 162° |
| 2026-04-24 19:16 | -35.57598 | -58.55211 | 9047 ft | 120 kts | 162° |
| 2026-04-24 19:16 | -35.58373 | -58.54825 | 9046 ft | 120 kts | 162° |
| 2026-04-24 19:17 | -35.59145 | -58.54441 | 9045 ft | 120 kts | 162° |
| 2026-04-24 19:17 | -35.59920 | -58.54054 | 9045 ft | 120 kts | 162° |
| 2026-04-24 19:17 | -35.60697 | -58.53665 | 9044 ft | 120 kts | 162° |
| 2026-04-24 19:17 | -35.61475 | -58.53277 | 9045 ft | 120 kts | 162° |
| 2026-04-24 19:18 | -35.62250 | -58.52889 | 9045 ft | 120 kts | 162° |
| 2026-04-24 19:18 | -35.63026 | -58.52502 | 9045 ft | 120 kts | 162° |
| 2026-04-24 19:18 | -35.63761 | -58.52135 | 9043 ft | 120 kts | 162° |
| 2026-04-24 19:18 | -35.64555 | -58.51738 | 9042 ft | 120 kts | 162° |
| 2026-04-24 19:19 | -35.65330 | -58.51350 | 9040 ft | 120 kts | 162° |
| 2026-04-24 19:19 | -35.66101 | -58.50965 | 9042 ft | 120 kts | 162° |
| 2026-04-24 19:19 | -35.66874 | -58.50579 | 9045 ft | 120 kts | 162° |
| 2026-04-24 19:19 | -35.67647 | -58.50192 | 9042 ft | 120 kts | 162° |
| 2026-04-24 19:20 | -35.68421 | -58.49805 | 9043 ft | 120 kts | 162° |
| 2026-04-24 19:20 | -35.69193 | -58.49418 | 9045 ft | 120 kts | 162° |
| 2026-04-24 19:20 | -35.69966 | -58.49031 | 9043 ft | 120 kts | 162° |
| 2026-04-24 19:20 | -35.70743 | -58.48643 | 9045 ft | 121 kts | 162° |
| 2026-04-24 19:21 | -35.71523 | -58.48252 | 9047 ft | 121 kts | 162° |
| 2026-04-24 19:21 | -35.72302 | -58.47861 | 9048 ft | 121 kts | 162° |
| 2026-04-24 19:21 | -35.73083 | -58.47471 | 9052 ft | 122 kts | 162° |
| 2026-04-24 19:21 | -35.73860 | -58.47083 | 9053 ft | 121 kts | 162° |
| 2026-04-24 19:22 | -35.74388 | -58.46818 | 9052 ft | 121 kts | 162° |
| 2026-04-24 19:22 | -35.75433 | -58.46350 | 9052 ft | 119 kts | 172° |
| 2026-04-24 19:22 | -35.76237 | -58.46097 | 9051 ft | 119 kts | 170° |
| 2026-04-24 19:22 | -35.77045 | -58.45832 | 9053 ft | 119 kts | 170° |
| 2026-04-24 19:23 | -35.77847 | -58.45568 | 9053 ft | 120 kts | 170° |
| 2026-04-24 19:23 | -35.78654 | -58.45306 | 9052 ft | 119 kts | 170° |
| 2026-04-24 19:23 | -35.79456 | -58.45044 | 9050 ft | 120 kts | 170° |
| 2026-04-24 19:23 | -35.80260 | -58.44783 | 9054 ft | 120 kts | 170° |
| 2026-04-24 19:24 | -35.81071 | -58.44517 | 9052 ft | 120 kts | 170° |
| 2026-04-24 19:24 | -35.81865 | -58.44257 | 9050 ft | 119 kts | 171° |
| 2026-04-24 19:24 | -35.82669 | -58.43996 | 9052 ft | 120 kts | 170° |
| 2026-04-24 19:24 | -35.83482 | -58.43730 | 9051 ft | 121 kts | 171° |
| 2026-04-24 19:25 | -35.84291 | -58.43466 | 9052 ft | 120 kts | 171° |
| 2026-04-24 19:25 | -35.85097 | -58.43203 | 9050 ft | 119 kts | 171° |
| 2026-04-24 19:25 | -35.85900 | -58.42940 | 9052 ft | 120 kts | 171° |
| 2026-04-24 19:25 | -35.86707 | -58.42676 | 9047 ft | 119 kts | 171° |
| 2026-04-24 19:26 | -35.87512 | -58.42413 | 9053 ft | 120 kts | 171° |
| 2026-04-24 19:26 | -35.88307 | -58.42154 | 9052 ft | 120 kts | 171° |
| 2026-04-24 19:26 | -35.89121 | -58.41886 | 9053 ft | 120 kts | 171° |
| 2026-04-24 19:26 | -35.89928 | -58.41623 | 9052 ft | 120 kts | 171° |
| 2026-04-24 19:27 | -35.90733 | -58.41359 | 9054 ft | 120 kts | 171° |
| 2026-04-24 19:27 | -35.91528 | -58.41100 | 9053 ft | 120 kts | 171° |
| 2026-04-24 19:27 | -35.92331 | -58.40837 | 9054 ft | 119 kts | 171° |
| 2026-04-24 19:27 | -35.93132 | -58.40575 | 9050 ft | 119 kts | 171° |
| 2026-04-24 19:28 | -35.93932 | -58.40313 | 9050 ft | 119 kts | 171° |
| 2026-04-24 19:28 | -35.94731 | -58.40052 | 9050 ft | 119 kts | 171° |
| 2026-04-24 19:28 | -35.95532 | -58.39789 | 9050 ft | 119 kts | 171° |
| 2026-04-24 19:28 | -35.96304 | -58.39537 | 9050 ft | 119 kts | 171° |
| 2026-04-24 19:29 | -35.97906 | -58.39011 | 9050 ft | 119 kts | 171° |
| 2026-04-24 19:29 | -35.98708 | -58.38749 | 9052 ft | 120 kts | 171° |
| 2026-04-24 19:29 | -35.99512 | -58.38485 | 9053 ft | 120 kts | 171° |
| 2026-04-24 19:30 | -36.00315 | -58.38222 | 9052 ft | 119 kts | 171° |
| 2026-04-24 19:30 | -36.01117 | -58.37959 | 9052 ft | 119 kts | 171° |
| 2026-04-24 19:30 | -36.01919 | -58.37696 | 9047 ft | 119 kts | 171° |
| 2026-04-24 19:30 | -36.02720 | -58.37432 | 9049 ft | 119 kts | 171° |
| 2026-04-24 19:31 | -36.03522 | -58.37169 | 9048 ft | 119 kts | 171° |
| 2026-04-24 19:31 | -36.04327 | -58.36906 | 9051 ft | 120 kts | 171° |
| 2026-04-24 19:31 | -36.05122 | -58.36644 | 9049 ft | 119 kts | 171° |
| 2026-04-24 19:31 | -36.05924 | -58.36381 | 9049 ft | 119 kts | 171° |
| 2026-04-24 19:32 | -36.06727 | -58.36118 | 9048 ft | 119 kts | 171° |
| 2026-04-24 19:32 | -36.07529 | -58.35853 | 9051 ft | 119 kts | 171° |
| 2026-04-24 19:32 | -36.08329 | -58.35591 | 9052 ft | 119 kts | 171° |
| 2026-04-24 19:32 | -36.09131 | -58.35327 | 9052 ft | 119 kts | 171° |
| 2026-04-24 19:33 | -36.09935 | -58.35063 | 9051 ft | 119 kts | 171° |
| 2026-04-24 19:33 | -36.10729 | -58.34802 | 9051 ft | 119 kts | 171° |
| 2026-04-24 19:33 | -36.11531 | -58.34539 | 9051 ft | 119 kts | 171° |
| 2026-04-24 19:33 | -36.12336 | -58.34273 | 9055 ft | 119 kts | 171° |
| 2026-04-24 19:34 | -36.13138 | -58.34010 | 9056 ft | 119 kts | 171° |
| 2026-04-24 19:34 | -36.13942 | -58.33745 | 9053 ft | 119 kts | 172° |
| 2026-04-24 19:34 | -36.14744 | -58.33481 | 9053 ft | 119 kts | 172° |
| 2026-04-24 19:34 | -36.15537 | -58.33220 | 9058 ft | 119 kts | 172° |
| 2026-04-24 19:35 | -36.16349 | -58.32952 | 9055 ft | 119 kts | 172° |
| 2026-04-24 19:35 | -36.17152 | -58.32689 | 9057 ft | 119 kts | 171° |
| 2026-04-24 19:35 | -36.17943 | -58.32428 | 9054 ft | 120 kts | 172° |
| 2026-04-24 19:35 | -36.18746 | -58.32163 | 9054 ft | 119 kts | 172° |
| 2026-04-24 19:36 | -36.19548 | -58.31898 | 9052 ft | 119 kts | 172° |
| 2026-04-24 19:36 | -36.20353 | -58.31633 | 9051 ft | 119 kts | 171° |
| 2026-04-24 19:36 | -36.21155 | -58.31369 | 9054 ft | 119 kts | 172° |
| 2026-04-24 19:36 | -36.21957 | -58.31104 | 9054 ft | 119 kts | 172° |
| 2026-04-24 19:37 | -36.22761 | -58.30839 | 9051 ft | 119 kts | 172° |
| 2026-04-24 19:37 | -36.23562 | -58.30575 | 9053 ft | 119 kts | 172° |
| 2026-04-24 19:37 | -36.24363 | -58.30311 | 9056 ft | 119 kts | 172° |
| 2026-04-24 19:37 | -36.25165 | -58.30046 | 9056 ft | 119 kts | 172° |
| 2026-04-24 19:38 | -36.25957 | -58.29784 | 9057 ft | 119 kts | 172° |
| 2026-04-24 19:38 | -36.26757 | -58.29521 | 9056 ft | 119 kts | 172° |
| 2026-04-24 19:38 | -36.27558 | -58.29256 | 9058 ft | 119 kts | 172° |
| 2026-04-24 19:38 | -36.28358 | -58.28991 | 9056 ft | 119 kts | 172° |
| 2026-04-24 19:39 | -36.29161 | -58.28727 | 9056 ft | 119 kts | 172° |
| 2026-04-24 19:39 | -36.29963 | -58.28462 | 9058 ft | 119 kts | 172° |
| 2026-04-24 19:39 | -36.30766 | -58.28196 | 9062 ft | 119 kts | 172° |
| 2026-04-24 19:39 | -36.31567 | -58.27931 | 9056 ft | 119 kts | 172° |
| 2026-04-24 19:40 | -36.32373 | -58.27664 | 9057 ft | 119 kts | 172° |
| 2026-04-24 19:40 | -36.33163 | -58.27404 | 9059 ft | 119 kts | 172° |
| 2026-04-24 19:40 | -36.33966 | -58.27138 | 9055 ft | 119 kts | 172° |
| 2026-04-24 19:40 | -36.34766 | -58.26873 | 9061 ft | 119 kts | 172° |
| 2026-04-24 19:41 | -36.35570 | -58.26608 | 9056 ft | 119 kts | 172° |
| 2026-04-24 19:41 | -36.36368 | -58.26342 | 9057 ft | 119 kts | 172° |
| 2026-04-24 19:41 | -36.36898 | -58.26168 | 9059 ft | 119 kts | 172° |
| 2026-04-24 19:41 | -36.37700 | -58.25901 | 9056 ft | 119 kts | 172° |
| 2026-04-24 19:42 | -36.38501 | -58.25636 | 9058 ft | 119 kts | 172° |
| 2026-04-24 19:42 | -36.39302 | -58.25371 | 9055 ft | 119 kts | 172° |
| 2026-04-24 19:42 | -36.40102 | -58.25106 | 9058 ft | 119 kts | 172° |
| 2026-04-24 19:42 | -36.40901 | -58.24841 | 9061 ft | 118 kts | 172° |
| 2026-04-24 19:43 | -36.41700 | -58.24577 | 9059 ft | 119 kts | 172° |
| 2026-04-24 19:43 | -36.42497 | -58.24313 | 9056 ft | 119 kts | 172° |
| 2026-04-24 19:43 | -36.43554 | -58.23961 | 9056 ft | 119 kts | 172° |
| 2026-04-24 19:43 | -36.44092 | -58.23783 | 9057 ft | 119 kts | 172° |
| 2026-04-24 19:44 | -36.44891 | -58.23517 | 9059 ft | 118 kts | 172° |
| 2026-04-24 19:44 | -36.45686 | -58.23253 | 9056 ft | 118 kts | 172° |
| 2026-04-24 19:44 | -36.46474 | -58.22993 | 9053 ft | 119 kts | 172° |
| 2026-04-24 19:44 | -36.47272 | -58.22727 | 9053 ft | 119 kts | 172° |
| 2026-04-24 19:45 | -36.48072 | -58.22462 | 9053 ft | 119 kts | 172° |
| 2026-04-24 19:45 | -36.48868 | -58.22197 | 9052 ft | 118 kts | 172° |
| 2026-04-24 19:45 | -36.49663 | -58.21934 | 9053 ft | 118 kts | 172° |
| 2026-04-24 19:45 | -36.50457 | -58.21670 | 9055 ft | 118 kts | 172° |
| 2026-04-24 19:46 | -36.51253 | -58.21405 | 9053 ft | 118 kts | 172° |
| 2026-04-24 19:46 | -36.52050 | -58.21139 | 9054 ft | 119 kts | 172° |
| 2026-04-24 19:46 | -36.52848 | -58.20875 | 9057 ft | 118 kts | 172° |
| 2026-04-24 19:46 | -36.53644 | -58.20610 | 9055 ft | 119 kts | 172° |
| 2026-04-24 19:47 | -36.54442 | -58.20344 | 9056 ft | 119 kts | 172° |
| 2026-04-24 19:47 | -36.55241 | -58.20078 | 9055 ft | 119 kts | 172° |
| 2026-04-24 19:47 | -36.56038 | -58.19814 | 9055 ft | 119 kts | 172° |
| 2026-04-24 19:47 | -36.56826 | -58.19551 | 9054 ft | 119 kts | 173° |
| 2026-04-24 19:48 | -36.57623 | -58.19286 | 9054 ft | 118 kts | 173° |
| 2026-04-24 19:48 | -36.58419 | -58.19020 | 9054 ft | 118 kts | 172° |
| 2026-04-24 19:48 | -36.59970 | -58.18503 | 9055 ft | 118 kts | 173° |
| 2026-04-24 19:49 | -36.61562 | -58.17974 | 9053 ft | 119 kts | 173° |
| 2026-04-24 19:49 | -36.63151 | -58.17443 | 9053 ft | 118 kts | 173° |
| 2026-04-24 19:50 | -36.65004 | -58.16825 | 9055 ft | 118 kts | 173° |
| 2026-04-24 19:50 | -36.65692 | -58.16596 | 9050 ft | 118 kts | 173° |
| 2026-04-24 19:51 | -36.67280 | -58.16066 | 9051 ft | 118 kts | 173° |
| 2026-04-24 19:51 | -36.68074 | -58.15801 | 9052 ft | 118 kts | 173° |
| 2026-04-24 19:52 | -36.69665 | -58.15270 | 9051 ft | 118 kts | 173° |
| 2026-04-24 19:52 | -36.70459 | -58.15005 | 9042 ft | 118 kts | 173° |
| 2026-04-24 19:52 | -36.71255 | -58.14739 | 9050 ft | 118 kts | 173° |
| 2026-04-24 19:52 | -36.72050 | -58.14472 | 9054 ft | 118 kts | 173° |
| 2026-04-24 19:53 | -36.72844 | -58.14208 | 9057 ft | 118 kts | 173° |
| 2026-04-24 19:53 | -36.73638 | -58.13942 | 9051 ft | 118 kts | 173° |
| 2026-04-24 19:53 | -36.75217 | -58.13414 | 9052 ft | 118 kts | 173° |
| 2026-04-24 19:54 | -36.76010 | -58.13148 | 9053 ft | 118 kts | 173° |
| 2026-04-24 19:54 | -36.76803 | -58.12883 | 9053 ft | 118 kts | 173° |
| 2026-04-24 19:54 | -36.77595 | -58.12618 | 9050 ft | 118 kts | 173° |
| 2026-04-24 19:54 | -36.78387 | -58.12352 | 9051 ft | 118 kts | 173° |
| 2026-04-24 19:55 | -36.78912 | -58.12177 | 9052 ft | 118 kts | 173° |
| 2026-04-24 19:55 | -36.79975 | -58.11821 | 9050 ft | 118 kts | 173° |
| 2026-04-24 19:55 | -36.80768 | -58.11555 | 9049 ft | 118 kts | 173° |
| 2026-04-24 19:55 | -36.81562 | -58.11289 | 9048 ft | 118 kts | 173° |
| 2026-04-24 19:56 | -36.82358 | -58.11023 | 9047 ft | 119 kts | 173° |
| 2026-04-24 19:56 | -36.83144 | -58.10759 | 9048 ft | 118 kts | 173° |
| 2026-04-24 19:56 | -36.83939 | -58.10492 | 9049 ft | 118 kts | 173° |
| 2026-04-24 19:56 | -36.84744 | -58.10222 | 9049 ft | 118 kts | 173° |
| 2026-04-24 19:57 | -36.85529 | -58.09959 | 9049 ft | 118 kts | 173° |
| 2026-04-24 19:57 | -36.86323 | -58.09693 | 9049 ft | 118 kts | 173° |
| 2026-04-24 19:57 | -36.87119 | -58.09426 | 9042 ft | 118 kts | 173° |
| 2026-04-24 19:57 | -36.87913 | -58.09159 | 9046 ft | 118 kts | 173° |
| 2026-04-24 19:58 | -36.88706 | -58.08892 | 9045 ft | 118 kts | 173° |
| 2026-04-24 19:58 | -36.89497 | -58.08627 | 9043 ft | 118 kts | 173° |
| 2026-04-24 19:58 | -36.90290 | -58.08361 | 9047 ft | 118 kts | 173° |
| 2026-04-24 19:58 | -36.91083 | -58.08093 | 9046 ft | 118 kts | 173° |
| 2026-04-24 19:59 | -36.91876 | -58.07828 | 9047 ft | 118 kts | 173° |
| 2026-04-24 19:59 | -36.92669 | -58.07562 | 9046 ft | 118 kts | 173° |
| 2026-04-24 19:59 | -36.93460 | -58.07295 | 9047 ft | 118 kts | 173° |
| 2026-04-24 19:59 | -36.94251 | -58.07030 | 9047 ft | 118 kts | 173° |
| 2026-04-24 20:00 | -36.95033 | -58.06766 | 9047 ft | 118 kts | 173° |
| 2026-04-24 20:00 | -36.95828 | -58.06499 | 9042 ft | 118 kts | 173° |
| 2026-04-24 20:00 | -36.96622 | -58.06232 | 9045 ft | 118 kts | 173° |
| 2026-04-24 20:00 | -36.97412 | -58.05967 | 9045 ft | 118 kts | 173° |
| 2026-04-24 20:01 | -36.98203 | -58.05699 | 9043 ft | 118 kts | 174° |
| 2026-04-24 20:01 | -36.98997 | -58.05432 | 9045 ft | 118 kts | 173° |
| 2026-04-24 20:01 | -36.99790 | -58.05165 | 9043 ft | 118 kts | 173° |
| 2026-04-24 20:01 | -37.00586 | -58.04897 | 9044 ft | 118 kts | 174° |
| 2026-04-24 20:02 | -37.01110 | -58.04721 | 9042 ft | 118 kts | 174° |
| 2026-04-24 20:02 | -37.02171 | -58.04364 | 9044 ft | 118 kts | 174° |
| 2026-04-24 20:02 | -37.02953 | -58.04100 | 9045 ft | 118 kts | 174° |
| 2026-04-24 20:02 | -37.03755 | -58.03830 | 9043 ft | 118 kts | 173° |
| 2026-04-24 20:03 | -37.04536 | -58.03566 | 9037 ft | 118 kts | 174° |
| 2026-04-24 20:03 | -37.05327 | -58.03299 | 9043 ft | 118 kts | 174° |
| 2026-04-24 20:03 | -37.06121 | -58.03031 | 9047 ft | 118 kts | 174° |
| 2026-04-24 20:03 | -37.06898 | -58.02681 | 9043 ft | 120 kts | 164° |
| 2026-04-24 20:04 | -37.07668 | -58.02278 | 9044 ft | 120 kts | 165° |
| 2026-04-24 20:04 | -37.08441 | -58.01877 | 9038 ft | 120 kts | 165° |
| 2026-04-24 20:04 | -37.09210 | -58.01480 | 9034 ft | 120 kts | 166° |
| 2026-04-24 20:04 | -37.09983 | -58.01080 | 9036 ft | 120 kts | 165° |
| 2026-04-24 20:05 | -37.10756 | -58.00679 | 9035 ft | 120 kts | 166° |
| 2026-04-24 20:05 | -37.11521 | -58.00284 | 9037 ft | 120 kts | 166° |
| 2026-04-24 20:05 | -37.12294 | -57.99883 | 9034 ft | 120 kts | 166° |
| 2026-04-24 20:05 | -37.13069 | -57.99481 | 9040 ft | 120 kts | 166° |
| 2026-04-24 20:06 | -37.13839 | -57.99081 | 9039 ft | 120 kts | 166° |
| 2026-04-24 20:06 | -37.14611 | -57.98681 | 9041 ft | 120 kts | 166° |
| 2026-04-24 20:06 | -37.15381 | -57.98282 | 9043 ft | 120 kts | 165° |
| 2026-04-24 20:06 | -37.16151 | -57.97882 | 9038 ft | 120 kts | 166° |
| 2026-04-24 20:07 | -37.16661 | -57.97617 | 9040 ft | 120 kts | 166° |
| 2026-04-24 20:07 | -37.17687 | -57.97085 | 9039 ft | 119 kts | 166° |
| 2026-04-24 20:07 | -37.18456 | -57.96685 | 9039 ft | 119 kts | 166° |
| 2026-04-24 20:07 | -37.19225 | -57.96286 | 9039 ft | 120 kts | 166° |
| 2026-04-24 20:08 | -37.19985 | -57.95892 | 9040 ft | 119 kts | 166° |
| 2026-04-24 20:08 | -37.20754 | -57.95491 | 9040 ft | 120 kts | 166° |
| 2026-04-24 20:08 | -37.21523 | -57.95092 | 9040 ft | 120 kts | 166° |
| 2026-04-24 20:08 | -37.22292 | -57.94693 | 9036 ft | 119 kts | 166° |
| 2026-04-24 20:09 | -37.23060 | -57.94293 | 9040 ft | 119 kts | 166° |
| 2026-04-24 20:09 | -37.23826 | -57.93894 | 9038 ft | 119 kts | 166° |
| 2026-04-24 20:09 | -37.24594 | -57.93495 | 9037 ft | 119 kts | 166° |
| 2026-04-24 20:09 | -37.25360 | -57.93096 | 9035 ft | 119 kts | 166° |
| 2026-04-24 20:10 | -37.26125 | -57.92699 | 9037 ft | 119 kts | 166° |
| 2026-04-24 20:10 | -37.26891 | -57.92299 | 9033 ft | 119 kts | 166° |
| 2026-04-24 20:10 | -37.27644 | -57.91907 | 9033 ft | 119 kts | 166° |
| 2026-04-24 20:10 | -37.28406 | -57.91511 | 9037 ft | 119 kts | 166° |
| 2026-04-24 20:11 | -37.29171 | -57.91112 | 9034 ft | 119 kts | 166° |
| 2026-04-24 20:11 | -37.29935 | -57.90714 | 9031 ft | 119 kts | 166° |
| 2026-04-24 20:11 | -37.30698 | -57.90317 | 9036 ft | 119 kts | 166° |
| 2026-04-24 20:11 | -37.31462 | -57.89919 | 9034 ft | 119 kts | 166° |
| 2026-04-24 20:12 | -37.32224 | -57.89521 | 9032 ft | 118 kts | 166° |
| 2026-04-24 20:12 | -37.32987 | -57.89124 | 9032 ft | 118 kts | 166° |
| 2026-04-24 20:12 | -37.33738 | -57.88732 | 9030 ft | 118 kts | 166° |
| 2026-04-24 20:12 | -37.34498 | -57.88335 | 9027 ft | 118 kts | 166° |
| 2026-04-24 20:13 | -37.35258 | -57.87938 | 9032 ft | 118 kts | 166° |
| 2026-04-24 20:13 | -37.36019 | -57.87541 | 9030 ft | 118 kts | 166° |
| 2026-04-24 20:13 | -37.36779 | -57.87144 | 9030 ft | 118 kts | 166° |
| 2026-04-24 20:13 | -37.37539 | -57.86748 | 9031 ft | 118 kts | 166° |
| 2026-04-24 20:14 | -37.38298 | -57.86351 | 9032 ft | 118 kts | 166° |
| 2026-04-24 20:14 | -37.39054 | -57.85957 | 9028 ft | 118 kts | 166° |
| 2026-04-24 20:14 | -37.39811 | -57.85562 | 9030 ft | 118 kts | 166° |
| 2026-04-24 20:14 | -37.40567 | -57.85167 | 9032 ft | 118 kts | 167° |
| 2026-04-24 20:15 | -37.41324 | -57.84771 | 9027 ft | 118 kts | 167° |
| 2026-04-24 20:15 | -37.42080 | -57.84376 | 9029 ft | 118 kts | 167° |
| 2026-04-24 20:15 | -37.42836 | -57.83979 | 9026 ft | 117 kts | 167° |
| 2026-04-24 20:15 | -37.43591 | -57.83585 | 9027 ft | 117 kts | 167° |
| 2026-04-24 20:16 | -37.44345 | -57.83190 | 9026 ft | 117 kts | 167° |
| 2026-04-24 20:16 | -37.45097 | -57.82797 | 9027 ft | 117 kts | 167° |
| 2026-04-24 20:16 | -37.45852 | -57.82401 | 9029 ft | 117 kts | 167° |
| 2026-04-24 20:16 | -37.46605 | -57.82008 | 9028 ft | 117 kts | 167° |
| 2026-04-24 20:17 | -37.47348 | -57.81619 | 9025 ft | 117 kts | 167° |
| 2026-04-24 20:17 | -37.48854 | -57.80829 | 9023 ft | 117 kts | 167° |
| 2026-04-24 20:17 | -37.49607 | -57.80435 | 9020 ft | 117 kts | 167° |
| 2026-04-24 20:18 | -37.50106 | -57.80174 | 9021 ft | 117 kts | 167° |
| 2026-04-24 20:18 | -37.51111 | -57.79647 | 9026 ft | 117 kts | 167° |
| 2026-04-24 20:18 | -37.51861 | -57.79253 | 9024 ft | 117 kts | 166° |
| 2026-04-24 20:18 | -37.52612 | -57.78861 | 9024 ft | 117 kts | 167° |
| 2026-04-24 20:19 | -37.53360 | -57.78468 | 9024 ft | 117 kts | 166° |
| 2026-04-24 20:19 | -37.54108 | -57.78075 | 9023 ft | 116 kts | 166° |
| 2026-04-24 20:19 | -37.54852 | -57.77684 | 9025 ft | 116 kts | 167° |
| 2026-04-24 20:19 | -37.55590 | -57.77298 | 9021 ft | 116 kts | 167° |
| 2026-04-24 20:20 | -37.56337 | -57.76905 | 9023 ft | 116 kts | 166° |
| 2026-04-24 20:20 | -37.57084 | -57.76513 | 9020 ft | 117 kts | 167° |
| 2026-04-24 20:20 | -37.57860 | -57.76109 | 8903 ft | 123 kts | 166° |
| 2026-04-24 20:20 | -37.58656 | -57.75691 | 8789 ft | 124 kts | 166° |
| 2026-04-24 20:21 | -37.59456 | -57.75269 | 8676 ft | 125 kts | 166° |
| 2026-04-24 20:21 | -37.60263 | -57.74844 | 8560 ft | 125 kts | 166° |
| 2026-04-24 20:21 | -37.61070 | -57.74421 | 8447 ft | 126 kts | 166° |
| 2026-04-24 20:21 | -37.61879 | -57.73995 | 8332 ft | 126 kts | 166° |
| 2026-04-24 20:22 | -37.62694 | -57.73567 | 8217 ft | 126 kts | 166° |
| 2026-04-24 20:22 | -37.63496 | -57.73144 | 8103 ft | 127 kts | 166° |
| 2026-04-24 20:22 | -37.64311 | -57.72716 | 7991 ft | 127 kts | 166° |
| 2026-04-24 20:22 | -37.65125 | -57.72286 | 7876 ft | 127 kts | 166° |
| 2026-04-24 20:23 | -37.65945 | -57.71856 | 7759 ft | 127 kts | 166° |
| 2026-04-24 20:23 | -37.66763 | -57.71424 | 7645 ft | 128 kts | 166° |
| 2026-04-24 20:23 | -37.67584 | -57.70992 | 7529 ft | 128 kts | 166° |
| 2026-04-24 20:23 | -37.68407 | -57.70559 | 7411 ft | 128 kts | 166° |
| 2026-04-24 20:24 | -37.68953 | -57.70272 | 7336 ft | 128 kts | 166° |
| 2026-04-24 20:24 | -37.70055 | -57.69690 | 7179 ft | 128 kts | 166° |
| 2026-04-24 20:24 | -37.70884 | -57.69253 | 7068 ft | 129 kts | 166° |
| 2026-04-24 20:24 | -37.71713 | -57.68816 | 6945 ft | 129 kts | 166° |
| 2026-04-24 20:25 | -37.72543 | -57.68378 | 6832 ft | 129 kts | 166° |
| 2026-04-24 20:25 | -37.73377 | -57.67939 | 6717 ft | 130 kts | 166° |
| 2026-04-24 20:25 | -37.74201 | -57.67504 | 6606 ft | 130 kts | 166° |
| 2026-04-24 20:25 | -37.75039 | -57.67061 | 6491 ft | 130 kts | 166° |
| 2026-04-24 20:26 | -37.75877 | -57.66619 | 6376 ft | 130 kts | 166° |
| 2026-04-24 20:26 | -37.76715 | -57.66176 | 6255 ft | 130 kts | 166° |
| 2026-04-24 20:26 | -37.77550 | -57.65735 | 6132 ft | 130 kts | 166° |
| 2026-04-24 20:26 | -37.78384 | -57.65296 | 6014 ft | 130 kts | 166° |
| 2026-04-24 20:27 | -37.79217 | -57.64854 | 5889 ft | 130 kts | 166° |
| 2026-04-24 20:27 | -37.79770 | -57.64563 | 5808 ft | 130 kts | 166° |
| 2026-04-24 20:27 | -37.80606 | -57.64121 | 5688 ft | 130 kts | 166° |
| 2026-04-24 20:27 | -37.81708 | -57.63538 | 5527 ft | 129 kts | 165° |
| 2026-04-24 20:28 | -37.82537 | -57.63099 | 5407 ft | 129 kts | 165° |
| 2026-04-24 20:28 | -37.83084 | -57.62809 | 5328 ft | 128 kts | 165° |
| 2026-04-24 20:28 | -37.83908 | -57.62374 | 5205 ft | 128 kts | 165° |
| 2026-04-24 20:28 | -37.84732 | -57.61937 | 5086 ft | 128 kts | 165° |
| 2026-04-24 20:29 | -37.85550 | -57.61505 | 4966 ft | 127 kts | 165° |
| 2026-04-24 20:29 | -37.86372 | -57.61069 | 4815 ft | 130 kts | 165° |
| 2026-04-24 20:29 | -37.87203 | -57.60629 | 4569 ft | 128 kts | 164° |
| 2026-04-24 20:29 | -37.88019 | -57.60196 | 4323 ft | 125 kts | 164° |
| 2026-04-24 20:30 | -37.88810 | -57.59775 | 4073 ft | 122 kts | 164° |
| 2026-04-24 20:30 | -37.89576 | -57.59343 | 3820 ft | 124 kts | 153° |
| 2026-04-24 20:30 | -37.90100 | -57.58480 | 3560 ft | 121 kts | 123° |
| 2026-04-24 20:30 | -37.90537 | -57.57588 | 3299 ft | 116 kts | 125° |
| 2026-04-24 20:31 | -37.90943 | -57.56749 | 3028 ft | 109 kts | 124° |
| 2026-04-24 20:31 | -37.91326 | -57.55960 | 2739 ft | 100 kts | 125° |
| 2026-04-24 20:31 | -37.91690 | -57.55228 | 2450 ft | 97 kts | 125° |
| 2026-04-24 20:31 | -37.92043 | -57.54524 | 2152 ft | 95 kts | 124° |
| 2026-04-24 20:32 | -37.92417 | -57.53833 | 1869 ft | 96 kts | 123° |
| 2026-04-24 20:32 | -37.92884 | -57.53253 | 1578 ft | 94 kts | 165° |
| 2026-04-24 20:32 | -37.93494 | -57.53207 | 1275 ft | 83 kts | 197° |
| 2026-04-24 20:32 | -37.94047 | -57.53327 | 989 ft | 80 kts | 199° |
| 2026-04-24 20:33 | -37.94533 | -57.53497 | 802 ft | 62 kts | 234° |
| 2026-04-24 20:33 | -37.94689 | -57.54007 | 685 ft | 67 kts | 271° |
| 2026-04-24 20:33 | -37.94693 | -57.54610 | 619 ft | 70 kts | 288° |
| 2026-04-24 20:33 | -37.94555 | -57.55177 | 517 ft | 66 kts | 305° |
| 2026-04-24 20:34 | -37.94288 | -57.55656 | 325 ft | 67 kts | 313° |
| 2026-04-24 20:34 | -37.94019 | -57.56149 | 149 ft | 68 kts | 308° |
| 2026-04-24 20:34 | -37.93783 | -57.56608 | 51 ft | 50 kts | 302° |
| 2026-04-24 20:34 | -37.93645 | -57.56883 | 49 ft | 28 kts | 302° |
| 2026-04-24 20:35 | -37.93526 | -57.57116 | 48 ft | 34 kts | 303° |
| 2026-04-24 20:35 | -37.93428 | -57.57309 | 45 ft | 19 kts | 300° |
| 2026-04-24 20:35 | -37.93380 | -57.57405 | 46 ft | 8 kts | 304° |
| 2026-04-24 20:35 | -37.93305 | -57.57552 | 46 ft | 25 kts | 302° |
| 2026-04-24 20:36 | -37.93210 | -57.57739 | 48 ft | 23 kts | 301° |
| 2026-04-24 20:36 | -37.93138 | -57.57887 | 48 ft | 16 kts | 294° |
| 2026-04-24 20:36 | -37.93157 | -57.57979 | 48 ft | 12 kts | 214° |
| 2026-04-24 20:36 | -37.93185 | -57.58003 | 48 ft | 0 kts | 211° |
| 2026-04-24 20:37 | -37.93195 | -57.58010 | 48 ft | 9 kts | 214° |
| 2026-04-24 20:37 | -37.93235 | -57.58062 | 48 ft | 7 kts | 281° |
| 2026-04-24 20:37 | -37.93224 | -57.58091 | 48 ft | 0 kts | 300° |